createdAt,value
2018-03-02T00:01:30.341Z,100882.47
2018-03-02T00:03:57.914Z,100882.31
2018-03-02T00:06:25.542Z,100873.02
2018-03-02T00:08:53.101Z,100866.89
2018-03-02T00:11:20.632Z,100874.88
2018-03-02T00:13:48.186Z,100869.44
2018-03-02T00:16:15.704Z,100866.73
2018-03-02T00:18:43.277Z,100863.55
2018-03-02T00:21:10.872Z,100864.16
2018-03-02T00:23:38.706Z,100866.92
2018-03-02T00:26:06.312Z,100861.63
2018-03-02T00:28:33.929Z,100859.77
2018-03-02T00:31:01.788Z,100851.63
2018-03-02T00:33:29.360Z,100852.05
2018-03-02T00:35:56.879Z,100848.35
2018-03-02T00:38:24.435Z,100842.30
2018-03-02T00:40:51.967Z,100845.92
2018-03-02T00:43:19.544Z,100838.61
2018-03-02T00:45:47.091Z,100836.20
2018-03-02T00:48:14.655Z,100834.17
2018-03-02T00:50:42.366Z,100826.47
2018-03-02T00:53:09.913Z,100822.02
2018-03-02T00:55:37.452Z,100821.64
2018-03-02T00:58:05.023Z,100814.73
2018-03-02T01:00:32.566Z,100819.80
2018-03-02T01:03:00.087Z,100816.55
2018-03-02T01:05:27.647Z,100816.28
2018-03-02T01:07:55.406Z,100809.66
2018-03-02T01:10:22.945Z,100801.86
2018-03-02T01:12:50.468Z,100803.58
2018-03-02T01:15:18.026Z,100791.51
2018-03-02T01:17:45.576Z,100792.41
2018-03-02T01:20:13.128Z,100792.67
2018-03-02T01:22:40.643Z,100790.02
2018-03-02T01:25:08.199Z,100782.16
2018-03-02T01:27:35.725Z,100772.78
2018-03-02T01:30:03.358Z,100773.64
2018-03-02T01:32:31.220Z,100764.49
2018-03-02T01:34:58.774Z,100761.93
2018-03-02T01:37:26.327Z,100751.93
2018-03-02T01:39:53.897Z,100756.73
2018-03-02T01:42:21.414Z,100748.25
2018-03-02T01:44:49.321Z,100748.57
2018-03-02T01:47:16.909Z,100742.13
2018-03-02T01:49:44.470Z,100736.72
2018-03-02T01:52:12.012Z,100742.05
2018-03-02T01:54:39.562Z,100731.33
2018-03-02T01:57:07.333Z,100732.97
2018-03-02T01:59:35.010Z,100732.91
2018-03-02T02:02:02.599Z,100726.66
2018-03-02T02:04:30.165Z,100720.33
2018-03-02T02:06:57.687Z,100716.65
2018-03-02T02:09:25.312Z,100708.16
2018-03-02T02:11:52.867Z,100697.91
2018-03-02T02:14:20.413Z,100697.54
2018-03-02T02:16:47.933Z,100688.59
2018-03-02T02:19:15.808Z,100683.73
2018-03-02T02:21:43.333Z,100687.77
2018-03-02T02:24:10.869Z,100688.77
2018-03-02T02:26:38.678Z,100679.20
2018-03-02T02:29:06.239Z,100669.45
2018-03-02T02:31:33.824Z,100670.05
2018-03-02T02:34:01.415Z,100670.43
2018-03-02T02:36:28.951Z,100665.98
2018-03-02T02:38:56.564Z,100664.88
2018-03-02T02:41:24.452Z,100667.23
2018-03-02T02:43:51.981Z,100673.75
2018-03-02T02:46:19.523Z,100666.77
2018-03-02T02:48:47.100Z,100662.10
2018-03-02T02:51:14.635Z,100673.41
2018-03-02T02:53:42.198Z,100673.66
2018-03-02T02:56:09.765Z,100677.30
2018-03-02T02:58:37.289Z,100664.55
2018-03-02T03:01:04.812Z,100671.27
2018-03-02T03:03:32.423Z,100672.45
2018-03-02T03:05:59.929Z,100660.40
2018-03-02T03:08:27.725Z,100668.11
2018-03-02T03:10:55.319Z,100664.41
2018-03-02T03:13:22.846Z,100656.28
2018-03-02T03:15:50.378Z,100659.81
2018-03-02T03:18:17.951Z,100657.59
2018-03-02T03:20:45.556Z,100654.72
2018-03-02T03:23:13.078Z,100655.56
2018-03-02T03:25:40.655Z,100656.35
2018-03-02T03:28:08.192Z,100655.83
2018-03-02T03:30:35.793Z,100642.45
2018-03-02T03:33:03.383Z,100635.31
2018-03-02T03:35:30.950Z,100643.72
2018-03-02T03:37:58.476Z,100638.55
2018-03-02T03:40:26.030Z,100640.73
2018-03-02T03:42:53.547Z,100639.58
2018-03-02T03:45:21.075Z,100637.84
2018-03-02T03:47:48.634Z,100635.94
2018-03-02T03:50:16.183Z,100635.23
2018-03-02T03:52:43.774Z,100626.91
2018-03-02T03:55:11.332Z,100627.91
2018-03-02T03:57:38.884Z,100627.78
2018-03-02T04:00:07.114Z,100620.73
2018-03-02T04:02:34.984Z,100625.27
2018-03-02T04:05:02.517Z,100619.66
2018-03-02T04:07:30.306Z,100619.98
2018-03-02T04:09:57.872Z,100612.84
2018-03-02T04:12:25.402Z,100615.56
2018-03-02T04:14:52.924Z,100608.84
2018-03-02T04:17:20.493Z,100613.48
2018-03-02T04:19:48.008Z,100608.31
2018-03-02T04:22:15.559Z,100608.55
2018-03-02T04:24:43.119Z,100604.45
2018-03-02T04:27:10.646Z,100602.30
2018-03-02T04:29:38.230Z,100593.39
2018-03-02T04:32:06.008Z,100596.20
2018-03-02T04:34:33.790Z,100590.13
2018-03-02T04:37:01.314Z,100593.05
2018-03-02T04:39:28.849Z,100582.50
2018-03-02T04:41:56.370Z,100584.55
2018-03-02T04:44:24.232Z,100580.26
2018-03-02T04:46:51.797Z,100577.47
2018-03-02T04:49:19.335Z,100574.85
2018-03-02T04:51:46.859Z,100577.78
2018-03-02T04:54:14.417Z,100573.48
2018-03-02T04:56:41.934Z,100568.36
2018-03-02T04:59:09.796Z,100564.38
2018-03-02T05:01:37.357Z,100567.50
2018-03-02T05:04:05.117Z,100566.49
2018-03-02T05:06:32.663Z,100568.78
2018-03-02T05:09:00.980Z,100562.03
2018-03-02T05:11:28.506Z,100563.73
2018-03-02T05:13:56.164Z,100567.02
2018-03-02T05:16:23.739Z,100564.64
2018-03-02T05:18:51.263Z,100563.21
2018-03-02T05:21:18.789Z,100562.73
2018-03-02T05:23:46.349Z,100559.40
2018-03-02T05:26:13.876Z,100556.52
2018-03-02T05:28:41.429Z,100559.55
2018-03-02T05:31:09.031Z,100552.41
2018-03-02T05:33:36.626Z,100551.48
2018-03-02T05:36:04.245Z,100554.02
2018-03-02T05:38:32.095Z,100549.16
2018-03-02T05:40:59.648Z,100547.72
2018-03-02T05:43:27.166Z,100545.73
2018-03-02T05:45:54.735Z,100547.41
2018-03-02T05:48:22.286Z,100543.95
2018-03-02T05:50:49.840Z,100542.31
2018-03-02T05:53:17.401Z,100537.00
2018-03-02T05:55:44.929Z,100542.45
2018-03-02T05:58:12.459Z,100538.91
2018-03-02T06:00:40.066Z,100540.67
2018-03-02T06:03:07.581Z,100540.91
2018-03-02T06:05:35.115Z,100545.60
2018-03-02T06:08:02.682Z,100543.47
2018-03-02T06:10:30.488Z,100545.32
2018-03-02T06:12:58.083Z,100542.98
2018-03-02T06:15:25.743Z,100546.70
2018-03-02T06:17:53.266Z,100548.37
2018-03-02T06:20:20.803Z,100544.05
2018-03-02T06:22:48.353Z,100549.66
2018-03-02T06:25:15.899Z,100545.92
2018-03-02T06:27:43.471Z,100548.77
2018-03-02T06:30:11.060Z,100548.93
2018-03-02T06:32:38.626Z,100540.34
2018-03-02T06:35:06.209Z,100537.52
2018-03-02T06:37:33.782Z,100527.81
2018-03-02T06:40:01.333Z,100528.13
2018-03-02T06:42:29.194Z,100530.08
2018-03-02T06:44:56.756Z,100531.34
2018-03-02T06:47:24.353Z,100521.48
2018-03-02T06:49:51.897Z,100513.08
2018-03-02T06:52:19.439Z,100508.09
2018-03-02T06:54:46.981Z,100508.11
2018-03-02T06:57:14.524Z,100511.80
2018-03-02T06:59:42.088Z,100515.20
2018-03-02T07:02:09.667Z,100507.97
2018-03-02T07:04:37.195Z,100507.97
2018-03-02T07:07:04.787Z,100500.41
2018-03-02T07:09:32.327Z,100501.85
2018-03-02T07:12:00.190Z,100506.60
2018-03-02T07:14:27.987Z,100501.53
2018-03-02T07:16:55.763Z,100499.14
2018-03-02T07:19:23.359Z,100497.07
2018-03-02T07:21:50.977Z,100494.94
2018-03-02T07:24:18.515Z,100485.52
2018-03-02T07:26:46.028Z,100479.19
2018-03-02T07:29:13.579Z,100478.47
2018-03-02T07:31:41.104Z,100475.63
2018-03-02T07:34:08.653Z,100472.32
2018-03-02T07:36:36.217Z,100467.41
2018-03-02T07:39:03.811Z,100465.51
2018-03-02T07:41:31.388Z,100454.93
2018-03-02T07:43:59.002Z,100461.14
2018-03-02T07:46:26.549Z,100462.89
2018-03-02T07:48:54.107Z,100463.20
2018-03-02T07:51:21.690Z,100456.61
2018-03-02T07:53:49.253Z,100450.86
2018-03-02T07:56:16.826Z,100451.43
2018-03-02T07:58:44.567Z,100449.70
2018-03-02T08:01:12.731Z,100448.95
2018-03-02T08:03:40.529Z,100451.78
2018-03-02T08:06:08.173Z,100453.05
2018-03-02T08:08:35.778Z,100443.52
2018-03-02T08:11:03.634Z,100440.98
2018-03-02T08:13:31.273Z,100431.84
2018-03-02T08:15:58.858Z,100437.23
2018-03-02T08:18:26.738Z,100432.80
2018-03-02T08:20:54.390Z,100430.36
2018-03-02T08:23:21.949Z,100431.57
2018-03-02T08:25:49.844Z,100423.84
2018-03-02T08:28:17.683Z,100424.53
2018-03-02T08:30:45.256Z,100422.11
2018-03-02T08:33:13.110Z,100418.94
2018-03-02T08:35:40.705Z,100414.02
2018-03-02T08:38:08.240Z,100408.20
2018-03-02T08:40:35.768Z,100404.98
2018-03-02T08:43:03.390Z,100408.17
2018-03-02T08:45:30.940Z,100404.84
2018-03-02T08:47:58.547Z,100400.70
2018-03-02T08:50:26.284Z,100394.17
2018-03-02T08:52:53.824Z,100392.39
2018-03-02T08:55:21.608Z,100390.39
2018-03-02T08:57:49.379Z,100379.20
2018-03-02T09:00:17.231Z,100384.98
2018-03-02T09:02:44.823Z,100380.03
2018-03-02T09:05:12.412Z,100376.74
2018-03-02T09:07:39.961Z,100374.59
2018-03-02T09:10:07.570Z,100370.82
2018-03-02T09:12:35.426Z,100361.73
2018-03-02T09:15:03.060Z,100350.91
2018-03-02T09:17:30.610Z,100347.16
2018-03-02T09:19:58.231Z,100341.38
2018-03-02T09:22:25.799Z,100343.56
2018-03-02T09:24:53.446Z,100332.92
2018-03-02T09:27:21.198Z,100319.78
2018-03-02T09:29:49.068Z,100321.30
2018-03-02T09:32:16.720Z,100320.58
2018-03-02T09:34:44.284Z,100321.92
2018-03-02T09:37:11.845Z,100308.79
2018-03-02T09:39:39.766Z,100302.63
2018-03-02T09:42:07.369Z,100315.14
2018-03-02T09:44:34.986Z,100303.88
2018-03-02T09:47:02.523Z,100302.48
2018-03-02T09:49:30.090Z,100295.13
2018-03-02T09:51:57.630Z,100290.50
2018-03-02T09:54:25.182Z,100288.32
2018-03-02T09:56:52.745Z,100281.52
2018-03-02T09:59:20.660Z,100287.81
2018-03-02T10:01:48.148Z,100282.34
2018-03-02T10:04:15.735Z,100277.83
2018-03-02T10:06:43.305Z,100277.26
2018-03-02T10:09:12.296Z,100267.95
2018-03-02T10:11:39.923Z,100269.27
2018-03-02T10:14:07.555Z,100264.37
2018-03-02T10:16:35.365Z,100261.28
2018-03-02T10:19:03.242Z,100259.56
2018-03-02T10:21:30.870Z,100244.45
2018-03-02T10:23:58.448Z,100240.70
2018-03-02T10:26:26.407Z,100247.36
2018-03-02T10:28:54.057Z,100247.62
2018-03-02T10:31:21.612Z,100234.20
2018-03-02T10:33:49.231Z,100227.55
2018-03-02T10:36:16.820Z,100228.45
2018-03-02T10:38:44.362Z,100226.63
2018-03-02T10:41:12.211Z,100222.73
2018-03-02T10:43:39.890Z,100224.11
2018-03-02T10:46:07.452Z,100215.58
2018-03-02T10:48:35.021Z,100208.62
2018-03-02T10:51:02.623Z,100203.64
2018-03-02T10:53:30.158Z,100199.34
2018-03-02T10:55:57.932Z,100206.52
2018-03-02T10:58:25.630Z,100201.17
2018-03-02T11:00:53.252Z,100201.67
2018-03-02T11:03:22.792Z,100193.40
2018-03-02T11:05:50.428Z,100186.61
2018-03-02T11:08:17.944Z,100181.59
2018-03-02T11:10:45.748Z,100189.14
2018-03-02T11:13:15.063Z,100180.25
2018-03-02T11:15:42.643Z,100172.55
2018-03-02T11:18:10.264Z,100174.98
2018-03-02T11:20:37.794Z,100166.86
2018-03-02T11:23:05.584Z,100168.91
2018-03-02T11:25:33.202Z,100164.12
2018-03-02T11:28:00.970Z,100158.88
2018-03-02T11:30:28.502Z,100157.66
2018-03-02T11:32:56.073Z,100147.23
2018-03-02T11:35:23.722Z,100141.05
2018-03-02T11:37:51.247Z,100137.23
2018-03-02T11:40:18.844Z,100128.36
2018-03-02T11:42:46.373Z,100130.48
2018-03-02T11:45:14.016Z,100126.62
2018-03-02T11:47:41.620Z,100127.97
2018-03-02T11:50:09.245Z,100131.98
2018-03-02T11:52:37.095Z,100125.48
2018-03-02T11:55:04.680Z,100117.95
2018-03-02T11:57:32.203Z,100111.17
2018-03-02T11:59:59.771Z,100107.16
2018-03-02T12:02:27.375Z,100097.30
2018-03-02T12:04:54.904Z,100094.38
2018-03-02T12:07:22.414Z,100097.17
2018-03-02T12:09:49.962Z,100089.71
2018-03-02T12:12:17.494Z,100090.95
2018-03-02T12:14:44.997Z,100087.13
2018-03-02T12:17:12.902Z,100082.38
2018-03-02T12:19:40.422Z,100089.97
2018-03-02T12:22:08.142Z,100093.73
2018-03-02T12:24:35.793Z,100089.91
2018-03-02T12:27:03.342Z,100091.19
2018-03-02T12:29:30.912Z,100082.53
2018-03-02T12:31:58.990Z,100084.71
2018-03-02T12:34:26.570Z,100083.61
2018-03-02T12:36:54.155Z,100086.14
2018-03-02T12:39:21.734Z,100084.66
2018-03-02T12:41:49.302Z,100092.23
2018-03-02T12:44:16.854Z,100082.11
2018-03-02T12:46:44.450Z,100080.25
2018-03-02T12:49:12.077Z,100078.78
2018-03-02T12:51:39.605Z,100069.03
2018-03-02T12:54:07.164Z,100067.15
2018-03-02T12:56:34.703Z,100062.12
2018-03-02T12:59:02.234Z,100064.34
2018-03-02T13:01:29.801Z,100052.55
2018-03-02T13:03:57.392Z,100056.30
2018-03-02T13:06:24.922Z,100055.86
2018-03-02T13:08:52.506Z,100051.55
2018-03-02T13:11:20.126Z,100053.87
2018-03-02T13:13:47.883Z,100051.41
2018-03-02T13:16:15.443Z,100051.64
2018-03-02T13:18:43.351Z,100046.07
2018-03-02T13:21:10.883Z,100034.58
2018-03-02T13:23:38.527Z,100033.58
2018-03-02T13:26:06.447Z,100028.56
2018-03-02T13:28:45.795Z,100033.69
2018-03-02T13:31:13.348Z,100035.59
2018-03-02T13:33:52.676Z,100041.66
2018-03-02T13:36:20.527Z,100040.07
2018-03-02T13:38:48.078Z,100042.19
2018-03-02T13:44:19.656Z,100037.91
2018-03-02T13:46:47.257Z,100041.53
2018-03-02T13:49:26.748Z,100046.90
2018-03-02T13:51:54.416Z,100045.90
2018-03-02T13:54:21.972Z,100048.53
2018-03-02T13:59:51.815Z,100047.80
2018-03-02T14:02:31.411Z,100041.30
2018-03-02T14:05:01.027Z,100034.81
2018-03-02T14:07:28.645Z,100035.88
2018-03-02T14:09:56.293Z,100037.55
2018-03-02T14:12:23.891Z,100030.39
2018-03-02T14:14:51.562Z,100039.67
2018-03-02T14:17:19.204Z,100028.69
2018-03-02T14:19:46.742Z,100030.45
2018-03-02T14:22:14.334Z,100033.81
2018-03-02T14:24:41.964Z,100036.78
2018-03-02T14:27:09.512Z,100031.75
2018-03-02T14:29:37.446Z,100029.09
2018-03-02T14:32:05.017Z,100025.45
2018-03-02T14:34:32.655Z,100018.98
2018-03-02T14:37:00.346Z,100012.41
2018-03-02T14:39:28.222Z,100016.45
2018-03-02T14:41:55.898Z,100016.70
2018-03-02T14:44:23.954Z,100008.71
2018-03-02T14:46:52.126Z,100006.02
2018-03-02T14:49:20.174Z,100007.46
2018-03-02T14:51:50.974Z,100000.00
2018-03-02T14:54:18.722Z,99995.06
2018-03-02T14:56:46.465Z,99991.14
2018-03-02T14:59:14.220Z,99983.09
2018-03-02T15:01:44.209Z,100002.15
2018-03-02T15:04:14.719Z,99995.66
2018-03-02T15:06:42.838Z,100006.53
2018-03-02T15:09:11.208Z,100004.02
2018-03-02T15:11:39.647Z,100007.88
2018-03-02T15:14:10.347Z,100011.16
2018-03-02T15:16:40.755Z,100008.77
2018-03-02T15:19:23.751Z,100012.48
2018-03-02T15:21:54.198Z,100013.43
2018-03-02T15:24:26.273Z,100017.52
2018-03-02T15:26:55.289Z,100020.13
2018-03-02T15:29:23.858Z,100016.15
2018-03-02T15:31:53.713Z,100024.10
2018-03-02T15:34:23.139Z,100018.30
2018-03-02T15:36:51.178Z,100013.70
2018-03-02T15:39:19.296Z,100017.95
2018-03-02T15:41:47.361Z,100020.95
2018-03-02T15:44:15.395Z,100017.59
2018-03-02T15:49:21.861Z,100028.09
2018-03-02T15:51:52.935Z,100023.56
2018-03-02T15:54:26.857Z,100027.67
2018-03-02T15:56:57.141Z,100026.50
2018-03-02T15:59:25.233Z,100025.04
2018-03-02T16:01:53.304Z,100029.95
2018-03-02T16:04:22.404Z,100038.31
2018-03-02T16:06:50.574Z,100035.14
2018-03-02T16:09:18.724Z,100042.25
2018-03-02T16:11:47.001Z,100044.64
2018-03-02T16:14:15.084Z,100048.25
2018-03-02T16:16:42.950Z,100055.69
2018-03-02T16:19:11.553Z,100058.04
2018-03-02T16:21:39.450Z,100057.39
2018-03-02T16:24:07.392Z,100057.03
2018-03-02T16:26:35.391Z,100058.69
2018-03-02T16:29:03.402Z,100054.98
2018-03-02T16:31:31.291Z,100055.81
2018-03-02T16:33:59.242Z,100054.59
2018-03-02T16:36:27.152Z,100058.37
2018-03-02T16:38:55.029Z,100055.24
2018-03-02T16:41:25.501Z,100058.14
2018-03-02T16:43:55.515Z,100061.88
2018-03-02T16:46:23.385Z,100057.03
2018-03-02T16:48:59.392Z,100064.56
2018-03-02T16:51:28.033Z,100067.25
2018-03-02T16:53:55.898Z,100069.48
2018-03-02T16:56:28.257Z,100072.45
2018-03-02T16:58:56.273Z,100076.44
2018-03-02T17:01:23.870Z,100091.40
2018-03-02T17:03:52.640Z,100094.51
2018-03-02T17:06:20.431Z,100098.67
2018-03-02T17:08:49.918Z,100100.61
2018-03-02T17:11:17.929Z,100098.98
2018-03-02T17:13:54.292Z,100098.72
2018-03-02T17:16:22.548Z,100103.09
2018-03-02T17:18:50.845Z,100107.13
2018-03-02T17:21:18.837Z,100112.41
2018-03-02T17:23:46.874Z,100108.59
2018-03-02T17:26:14.817Z,100117.77
2018-03-02T17:28:43.378Z,100121.83
2018-03-02T17:31:11.351Z,100121.92
2018-03-02T17:33:44.021Z,100121.51
2018-03-02T17:36:12.300Z,100119.17
2018-03-02T17:38:41.447Z,100122.02
2018-03-02T17:41:12.176Z,100122.39
2018-03-02T17:43:39.917Z,100131.80
2018-03-02T17:46:07.501Z,100130.27
2018-03-02T17:48:35.224Z,100129.95
2018-03-02T17:51:07.464Z,100138.92
2018-03-02T17:53:35.102Z,100135.70
2018-03-02T17:56:04.184Z,100141.53
2018-03-02T17:58:32.514Z,100140.55
2018-03-02T18:01:04.748Z,100142.64
2018-03-02T18:03:36.132Z,100142.47
2018-03-02T18:06:12.396Z,100132.73
2018-03-02T18:08:43.854Z,100144.92
2018-03-02T18:11:15.466Z,100153.03
2018-03-02T18:13:50.185Z,100147.53
2018-03-02T18:18:57.701Z,100150.66
2018-03-02T18:21:25.611Z,100154.60
2018-03-02T18:24:01.901Z,100156.84
2018-03-02T18:26:31.971Z,100155.16
2018-03-02T18:29:01.659Z,100155.67
2018-03-02T18:31:30.816Z,100164.33
2018-03-02T18:34:03.991Z,100173.99
2018-03-02T18:36:32.470Z,100173.79
2018-03-02T18:39:00.488Z,100172.48
2018-03-02T18:41:30.614Z,100179.53
2018-03-02T18:43:58.842Z,100185.48
2018-03-02T18:46:26.429Z,100183.91
2018-03-02T18:48:54.326Z,100180.45
2018-03-02T18:51:22.503Z,100184.05
2018-03-02T18:53:50.112Z,100193.07
2018-03-02T18:56:17.685Z,100191.64
2018-03-02T18:58:45.604Z,100188.08
2018-03-02T19:01:13.525Z,100199.11
2018-03-02T19:03:41.714Z,100194.05
2018-03-02T19:06:09.272Z,100199.02
2018-03-02T19:08:37.119Z,100198.92
2018-03-02T19:11:04.743Z,100208.67
2018-03-02T19:13:32.309Z,100205.22
2018-03-02T19:15:59.849Z,100207.27
2018-03-02T19:18:27.419Z,100214.64
2018-03-02T19:20:54.987Z,100214.30
2018-03-02T19:23:22.652Z,100218.47
2018-03-02T19:25:50.282Z,100216.97
2018-03-02T19:28:17.839Z,100214.73
2018-03-02T19:30:45.367Z,100218.16
2018-03-02T19:33:12.966Z,100217.67
2018-03-02T19:35:40.614Z,100224.34
2018-03-02T19:38:08.183Z,100225.86
2018-03-02T19:40:35.869Z,100222.19
2018-03-02T19:43:03.420Z,100228.59
2018-03-02T19:45:30.956Z,100225.83
2018-03-02T19:47:58.622Z,100227.67
2018-03-02T19:50:26.206Z,100227.00
2018-03-02T19:52:53.755Z,100225.45
2018-03-02T19:55:21.700Z,100229.74
2018-03-02T19:57:49.255Z,100232.85
2018-03-02T20:00:16.868Z,100240.75
2018-03-02T20:02:44.489Z,100244.20
2018-03-02T20:05:12.025Z,100246.59
2018-03-02T20:07:41.567Z,100250.11
2018-03-02T20:10:10.034Z,100248.77
2018-03-02T20:12:37.583Z,100251.46
2018-03-02T20:15:05.218Z,100246.02
2018-03-02T20:17:32.913Z,100240.21
2018-03-02T20:20:00.482Z,100254.44
2018-03-02T20:22:28.191Z,100257.27
2018-03-02T20:24:56.647Z,100253.48
2018-03-02T20:27:24.274Z,100252.27
2018-03-02T20:29:51.855Z,100253.14
2018-03-02T20:32:19.506Z,100253.78
2018-03-02T20:34:47.390Z,100257.39
2018-03-02T20:37:15.126Z,100259.95
2018-03-02T20:39:42.774Z,100260.70
2018-03-02T20:42:14.050Z,100259.73
2018-03-02T20:44:42.787Z,100258.44
2018-03-02T20:47:12.014Z,100256.09
2018-03-02T20:49:42.859Z,100257.59
2018-03-02T20:52:11.376Z,100256.88
2018-03-02T20:54:40.477Z,100253.86
2018-03-02T20:57:08.724Z,100248.23
2018-03-02T20:59:36.444Z,100240.20
2018-03-02T21:02:06.260Z,100244.87
2018-03-02T21:04:34.167Z,100241.55
2018-03-02T21:07:02.302Z,100242.64
2018-03-02T21:09:30.470Z,100241.30
2018-03-02T21:11:58.399Z,100250.48
2018-03-02T21:14:25.975Z,100250.19
2018-03-02T21:16:53.631Z,100249.60
2018-03-02T21:19:21.216Z,100247.37
2018-03-02T21:21:48.782Z,100254.28
2018-03-02T21:24:16.314Z,100251.98
2018-03-02T21:26:43.838Z,100248.54
2018-03-02T21:29:11.440Z,100254.53
2018-03-02T21:31:39.388Z,100259.30
2018-03-02T21:34:07.153Z,100264.58
2018-03-02T21:36:34.854Z,100268.56
2018-03-02T21:39:02.382Z,100255.80
2018-03-02T21:41:30.017Z,100265.08
2018-03-02T21:43:59.034Z,100261.77
2018-03-02T21:46:27.952Z,100253.63
2018-03-02T21:48:55.793Z,100258.23
2018-03-02T21:51:23.386Z,100258.90
2018-03-02T21:53:50.972Z,100247.66
2018-03-02T21:56:18.580Z,100246.72
2018-03-02T21:58:46.569Z,100242.82
2018-03-02T22:01:14.490Z,100242.56
2018-03-02T22:03:42.198Z,100244.42
2018-03-02T22:06:10.433Z,100242.20
2018-03-02T22:08:38.088Z,100237.70
2018-03-02T22:11:05.623Z,100234.69
2018-03-02T22:13:33.665Z,100237.51
2018-03-02T22:16:01.261Z,100233.92
2018-03-02T22:18:28.800Z,100234.01
2018-03-02T22:20:56.436Z,100235.74
2018-03-02T22:23:24.212Z,100240.44
2018-03-02T22:25:51.767Z,100234.26
2018-03-02T22:28:19.346Z,100231.53
2018-03-02T22:30:47.397Z,100233.12
2018-03-02T22:33:15.480Z,100233.58
2018-03-02T22:35:43.761Z,100235.22
2018-03-02T22:38:12.920Z,100237.44
2018-03-02T22:40:40.861Z,100226.13
2018-03-02T22:43:08.425Z,100227.97
2018-03-02T22:45:36.254Z,100227.55
2018-03-02T22:48:03.797Z,100226.20
2018-03-02T22:50:31.400Z,100224.87
2018-03-02T22:52:59.089Z,100227.39
2018-03-02T22:55:26.728Z,100229.19
2018-03-02T22:57:54.365Z,100220.67
2018-03-02T23:00:21.899Z,100225.69
2018-03-02T23:02:49.519Z,100224.31
2018-03-02T23:05:17.182Z,100228.52
2018-03-02T23:07:44.835Z,100221.03
2018-03-02T23:10:12.680Z,100227.45
2018-03-02T23:12:40.250Z,100224.62
2018-03-02T23:15:07.889Z,100232.41
2018-03-02T23:17:35.868Z,100227.67
2018-03-02T23:20:03.450Z,100228.44
2018-03-02T23:22:31.054Z,100230.73
2018-03-02T23:24:58.760Z,100228.09
2018-03-02T23:27:27.000Z,100221.98
2018-03-02T23:29:54.626Z,100224.47
2018-03-02T23:32:22.465Z,100228.44
2018-03-02T23:34:50.050Z,100225.01
2018-03-02T23:37:17.606Z,100223.29
2018-03-02T23:39:45.144Z,100225.92
2018-03-02T23:42:13.322Z,100227.03
2018-03-02T23:44:40.861Z,100222.83
2018-03-02T23:47:08.430Z,100223.71
2018-03-02T23:49:35.977Z,100226.16
2018-03-02T23:52:03.523Z,100228.34
2018-03-02T23:54:31.332Z,100230.43
2018-03-02T23:56:58.947Z,100230.28
2018-03-02T23:59:27.216Z,100236.77
